createdAt,value
2022-08-17T00:03:34.032Z,4.15
2022-08-17T00:14:01.838Z,5.05
2022-08-17T00:19:08.661Z,5.05
2022-08-17T00:24:10.880Z,4.80
2022-08-17T00:29:20.118Z,4.80
2022-08-17T00:34:22.172Z,4.63
2022-08-17T00:39:23.908Z,4.60
2022-08-17T00:44:30.242Z,5.37
2022-08-17T00:49:33.006Z,5.00
2022-08-17T00:54:41.822Z,5.00
2022-08-17T00:59:47.094Z,4.40
2022-08-17T01:05:03.893Z,4.72
2022-08-17T01:10:58.953Z,5.03
2022-08-17T01:15:37.408Z,5.25
2022-08-17T01:20:48.550Z,5.30
2022-08-17T01:25:54.316Z,5.10
2022-08-17T01:30:57.755Z,5.35
2022-08-17T01:36:01.175Z,5.53
2022-08-17T01:41:11.713Z,5.78
2022-08-17T01:46:34.584Z,5.90
2022-08-17T01:51:37.412Z,5.90
2022-08-17T02:01:43.613Z,6.10
2022-08-17T02:06:53.138Z,6.47
2022-08-17T02:11:57.750Z,5.70
2022-08-17T02:16:59.341Z,5.07
2022-08-17T02:22:01.283Z,5.45
2022-08-17T02:27:03.772Z,5.33
2022-08-17T02:32:05.614Z,5.80
2022-08-17T02:37:08.537Z,5.63
2022-08-17T02:42:10.518Z,5.50
2022-08-17T02:47:12.288Z,6.18
2022-08-17T02:52:13.919Z,6.20
2022-08-17T02:57:15.582Z,6.05
2022-08-17T03:02:17.269Z,5.97
2022-08-17T03:07:20.239Z,6.40
2022-08-17T03:17:23.822Z,6.05
2022-08-17T03:22:37.337Z,5.67
2022-08-17T03:27:41.981Z,6.07
2022-08-17T03:32:47.065Z,6.63
2022-08-17T03:37:52.432Z,6.18
2022-08-17T03:43:07.846Z,6.40
2022-08-17T03:48:29.216Z,6.22
2022-08-17T03:53:49.520Z,6.97
2022-08-17T03:58:51.366Z,6.90
2022-08-17T04:03:52.956Z,6.03
2022-08-17T04:08:54.580Z,6.45
2022-08-17T04:13:56.803Z,5.30
2022-08-17T04:18:58.442Z,6.88
2022-08-17T04:24:01.105Z,7.37
2022-08-17T04:29:02.766Z,7.38
2022-08-17T04:34:04.360Z,6.80
2022-08-17T04:39:05.991Z,6.68
2022-08-17T04:44:07.760Z,6.97
2022-08-17T04:49:11.049Z,7.00
2022-08-17T04:54:22.533Z,7.05
2022-08-17T04:59:24.575Z,7.25
2022-08-17T05:04:34.581Z,7.10
2022-08-17T05:09:36.955Z,7.35
2022-08-17T05:14:39.511Z,6.50
2022-08-17T05:24:53.448Z,6.80
2022-08-17T05:29:55.648Z,7.22
2022-08-17T05:35:00.020Z,7.30
2022-08-17T05:40:01.945Z,7.28
2022-08-17T05:45:04.688Z,7.23
2022-08-17T05:50:09.818Z,7.45
2022-08-17T05:55:34.223Z,6.60
2022-08-17T06:01:02.009Z,6.18
2022-08-17T06:06:25.255Z,5.70
2022-08-17T06:11:44.709Z,5.70
2022-08-17T06:16:51.431Z,5.70
2022-08-17T06:21:54.925Z,5.35
2022-08-17T06:27:06.546Z,5.45
2022-08-17T06:32:10.436Z,5.30
2022-08-17T06:37:21.683Z,4.38
2022-08-17T06:43:05.024Z,4.38
2022-08-17T06:48:40.569Z,4.72
2022-08-17T06:53:59.432Z,4.82
2022-08-17T06:59:02.282Z,4.80
2022-08-17T07:04:31.157Z,4.55
2022-08-17T07:09:37.840Z,4.40
2022-08-17T07:14:52.797Z,4.45
2022-08-17T07:20:08.540Z,3.78
2022-08-17T07:25:16.814Z,4.18
2022-08-17T07:30:28.431Z,3.80
2022-08-17T07:35:31.310Z,4.00
2022-08-17T07:41:05.895Z,3.67
2022-08-17T07:46:38.221Z,4.18
2022-08-17T07:51:55.332Z,4.00
2022-08-17T07:57:08.854Z,3.47
2022-08-17T08:02:31.106Z,3.85
2022-08-17T08:07:38.200Z,3.67
2022-08-17T08:12:45.605Z,3.80
2022-08-17T08:17:56.013Z,4.10
2022-08-17T08:23:15.461Z,3.70
2022-08-17T09:59:54.444Z,2.67
2022-08-17T10:05:08.773Z,2.72
2022-08-17T10:10:21.829Z,2.75
2022-08-17T10:15:34.567Z,2.58
2022-08-17T10:20:41.870Z,2.53
2022-08-17T10:25:55.888Z,2.92
2022-08-17T10:31:33.218Z,2.60
2022-08-17T10:36:37.814Z,2.38
2022-08-17T10:41:44.239Z,2.50
2022-08-17T10:47:15.620Z,2.50
2022-08-17T10:52:20.243Z,2.60
2022-08-17T10:57:33.851Z,2.58
2022-08-17T11:03:15.280Z,2.55
2022-08-17T11:08:44.647Z,2.42
2022-08-17T11:14:10.982Z,2.42
2022-08-17T11:20:04.562Z,2.40
2022-08-17T11:25:15.929Z,2.80
2022-08-17T11:30:40.855Z,2.60
2022-08-17T11:35:55.231Z,2.38
2022-08-17T11:41:15.481Z,2.40
2022-08-17T11:46:51.784Z,2.30
2022-08-17T11:52:11.511Z,2.28
2022-08-17T11:57:27.088Z,2.90
2022-08-17T12:02:38.801Z,2.60
2022-08-17T12:07:54.674Z,2.70
2022-08-17T12:12:57.388Z,2.70
2022-08-17T12:17:59.253Z,2.80
2022-08-17T12:23:18.510Z,2.53
2022-08-17T12:28:25.837Z,2.60
2022-08-17T12:55:12.785Z,2.75
2022-08-17T13:00:19.923Z,2.47
2022-08-17T13:05:36.006Z,2.70
2022-08-17T13:10:38.027Z,2.65
2022-08-17T13:15:44.458Z,3.00
2022-08-17T13:20:55.084Z,2.53
2022-08-17T13:26:04.697Z,2.90
2022-08-17T13:31:28.226Z,2.85
2022-08-17T13:36:32.065Z,2.85
2022-08-17T13:41:37.688Z,3.05
2022-08-17T13:46:39.397Z,2.92
2022-08-17T13:51:46.184Z,2.70
2022-08-17T13:56:59.570Z,2.80
2022-08-17T14:02:02.690Z,2.55
2022-08-17T14:07:13.421Z,2.75
2022-08-17T14:12:19.977Z,2.70
2022-08-17T14:17:23.152Z,2.58
2022-08-17T14:22:30.961Z,2.60
2022-08-17T14:27:34.006Z,2.58
2022-08-17T14:32:48.396Z,2.17
2022-08-17T14:37:51.395Z,2.60
2022-08-17T14:42:55.477Z,2.65
2022-08-17T14:47:57.107Z,2.78
2022-08-17T14:53:01.433Z,2.55
2022-08-17T14:58:04.126Z,2.70
2022-08-17T15:03:05.892Z,2.88
2022-08-17T15:08:07.838Z,2.78
2022-08-17T15:13:17.222Z,2.50
2022-08-17T15:18:18.926Z,2.60
2022-08-17T15:28:24.373Z,2.70
2022-08-17T15:33:30.137Z,2.50
2022-08-17T15:38:39.375Z,2.53
2022-08-17T15:43:42.460Z,2.45
2022-08-17T15:48:46.324Z,2.50
2022-08-17T15:53:50.946Z,2.60
2022-08-17T15:58:54.776Z,2.45
2022-08-17T16:04:04.045Z,2.35
2022-08-17T16:09:06.630Z,2.40
2022-08-17T16:14:08.301Z,2.72
2022-08-17T16:19:09.932Z,3.25
2022-08-17T16:24:12.672Z,2.38
2022-08-17T16:29:16.677Z,2.60
2022-08-17T16:39:20.714Z,2.65
2022-08-17T16:44:22.630Z,3.28
2022-08-17T16:49:37.451Z,2.92
2022-08-17T16:54:43.621Z,3.40
2022-08-17T16:59:50.177Z,3.38
2022-08-17T17:05:01.045Z,3.22
2022-08-17T17:10:07.626Z,3.03
2022-08-17T17:15:10.541Z,3.78
2022-08-17T17:20:17.974Z,3.58
2022-08-17T17:25:31.731Z,4.03
2022-08-17T17:30:48.254Z,3.38
2022-08-17T17:36:00.721Z,3.35
2022-08-17T17:41:06.859Z,3.10
2022-08-17T17:46:26.758Z,3.38
2022-08-17T17:52:08.102Z,3.33
2022-08-17T18:02:51.388Z,3.70
2022-08-17T18:08:11.497Z,3.90
2022-08-17T18:13:44.358Z,3.53
2022-08-17T18:18:52.270Z,3.60
2022-08-17T18:23:59.909Z,3.88
2022-08-17T18:29:15.797Z,3.60
2022-08-17T18:34:46.422Z,3.40
2022-08-17T18:39:49.168Z,3.70
2022-08-17T18:44:54.898Z,3.88
2022-08-17T18:50:18.496Z,3.42
2022-08-17T18:55:28.930Z,4.20
2022-08-17T19:00:40.317Z,3.85
2022-08-17T19:05:44.880Z,4.25
2022-08-17T19:10:53.914Z,3.83
2022-08-17T19:16:18.030Z,3.88
2022-08-17T19:21:25.478Z,3.53
2022-08-17T19:26:54.393Z,3.90
2022-08-17T19:31:58.440Z,4.40
2022-08-17T19:37:06.896Z,3.78
2022-08-17T19:42:33.928Z,4.22
2022-08-17T19:47:58.642Z,4.35
2022-08-17T19:53:17.547Z,4.03
2022-08-17T19:58:25.161Z,4.35
2022-08-17T20:03:53.379Z,4.35
2022-08-17T20:09:09.504Z,4.07
2022-08-17T20:14:19.874Z,3.85
2022-08-17T20:19:35.292Z,4.30
2022-08-17T20:24:41.787Z,3.83
2022-08-17T20:30:05.437Z,4.25
2022-08-17T20:35:16.847Z,4.18
2022-08-17T20:40:23.606Z,4.10
2022-08-17T20:45:43.762Z,4.07
2022-08-17T20:50:57.378Z,4.13
2022-08-17T20:55:59.028Z,4.03
2022-08-17T21:01:13.629Z,4.57
2022-08-17T21:06:18.598Z,4.10
2022-08-17T21:12:00.056Z,3.40
2022-08-17T21:17:17.429Z,4.40
2022-08-17T21:22:37.391Z,4.50
2022-08-17T21:28:02.332Z,3.72
2022-08-17T21:33:27.417Z,4.32
2022-08-17T21:38:36.208Z,4.10
2022-08-17T21:43:47.605Z,4.32
2022-08-17T21:48:54.434Z,3.90
2022-08-17T21:53:59.967Z,4.45
2022-08-17T21:59:15.533Z,3.90
2022-08-17T22:04:24.844Z,4.10
2022-08-17T22:09:41.323Z,4.05
2022-08-17T22:14:58.905Z,4.90
2022-08-17T22:20:08.593Z,4.45
2022-08-17T22:25:20.657Z,4.20
2022-08-17T22:30:32.936Z,4.63
2022-08-17T22:35:41.013Z,5.60
2022-08-17T22:40:43.986Z,5.68
2022-08-17T22:45:51.439Z,6.15
2022-08-17T22:51:12.540Z,5.13
2022-08-17T22:56:36.160Z,6.82
2022-08-17T23:01:39.144Z,7.30
2022-08-17T23:06:42.382Z,7.93
2022-08-17T23:11:49.809Z,7.72
2022-08-17T23:16:51.878Z,7.60
2022-08-17T23:21:56.062Z,7.60
2022-08-17T23:26:58.945Z,9.95
2022-08-17T23:32:01.631Z,9.50
2022-08-17T23:37:04.408Z,8.88
2022-08-17T23:42:08.668Z,8.73
2022-08-17T23:47:11.145Z,9.25
2022-08-17T23:57:20.890Z,10.70
